Time;durP1;ratioP1;P1;durP2;ratioP2;P2;SDS_P1;SDS_P2;PMS_P1;PMS_P2;Temp;Humidity;BMP_temperature;BMP_pressure;BME280_temperature;BME280_humidity;BME280_pressure;Samples;Min_cycle;Max_cycle;Signal;HPM_P1;HPM_P2
2020/12/16 00:00:37;;;;;;;37.42;16.40;;;;;;;3.88;74.29;99865.78;5084556;28;20435;-75
2020/12/16 00:03:02;;;;;;;52.53;23.20;;;;;;;3.85;73.95;99867.03;5092153;28;20028;-76
2020/12/16 00:05:28;;;;;;;47.85;21.45;;;;;;;3.83;73.88;99872.53;5090223;28;20403;-76
2020/12/16 00:07:53;;;;;;;53.35;23.10;;;;;;;3.81;73.82;99873.78;5088761;28;20131;-76
2020/12/16 00:10:19;;;;;;;47.55;21.90;;;;;;;3.75;74.05;99867.47;5089385;28;20393;-77
2020/12/16 00:12:44;;;;;;;45.28;21.50;;;;;;;3.79;73.63;99875.81;5090376;28;20024;-75
2020/12/16 00:15:10;;;;;;;40.88;18.80;;;;;;;3.73;73.74;99866.06;5090306;28;20028;-76
2020/12/16 00:17:36;;;;;;;34.10;18.80;;;;;;;3.72;73.12;99878.47;5089994;28;20029;-77
2020/12/16 00:20:05;;;;;;;40.13;19.42;;;;;;;3.52;73.18;99849.47;5074551;28;20166;-76
2020/12/16 00:22:38;;;;;;;36.03;20.65;;;;;;;3.64;73.26;99876.09;5069777;28;20028;-78
2020/12/16 00:25:04;;;;;;;32.97;17.92;;;;;;;3.63;73.19;99879.75;5069835;28;20028;-76
2020/12/16 00:27:30;;;;;;;35.60;19.48;;;;;;;3.60;72.98;99883.63;5069669;28;20408;-76
2020/12/16 00:29:55;;;;;;;32.30;18.65;;;;;;;3.55;72.67;99888.72;5082339;28;20485;-75
2020/12/16 00:32:20;;;;;;;37.65;18.67;;;;;;;3.50;72.36;99883.25;5089123;28;20036;-79
2020/12/16 00:34:46;;;;;;;40.05;19.55;;;;;;;3.43;72.11;99885.91;5090069;28;20069;-79
2020/12/16 00:37:11;;;;;;;35.60;22.35;;;;;;;3.31;72.37;99866.44;5090001;28;20541;-77
2020/12/16 00:39:37;;;;;;;21.65;12.18;;;;;;;3.32;72.62;99884.72;5073235;28;20060;-78
2020/12/16 00:42:06;;;;;;;24.52;11.90;;;;;;;3.27;72.85;99891.63;5088992;28;20032;-76
2020/12/16 00:44:32;;;;;;;20.83;11.23;;;;;;;3.20;72.28;99894.31;5089636;28;20488;-76
2020/12/16 00:46:57;;;;;;;25.42;11.75;;;;;;;3.16;72.58;99899.19;5073086;28;20044;-76
2020/12/16 00:49:22;;;;;;;29.25;12.77;;;;;;;3.02;72.93;99885.16;5069710;28;20032;-75
2020/12/16 00:51:51;;;;;;;25.65;12.38;;;;;;;3.00;73.45;99891.69;5086657;28;20548;-74
2020/12/16 00:54:16;;;;;;;22.48;12.93;;;;;;;2.92;73.59;99897.16;5088912;28;20036;-83
2020/12/16 00:56:43;;;;;;;21.42;12.13;;;;;;;2.88;73.20;99896.75;5089740;28;20032;-81
2020/12/16 00:59:09;;;;;;;26.90;12.55;;;;;;;2.80;73.56;99894.34;5087816;28;20106;-82
2020/12/16 01:01:34;;;;;;;24.83;14.10;;;;;;;2.78;73.57;99894.53;5089213;28;20123;-82
2020/12/16 01:04:00;;;;;;;19.83;12.60;;;;;;;2.74;73.70;99898.59;5089557;28;20032;-83
2020/12/16 01:06:25;;;;;;;24.90;12.38;;;;;;;2.69;73.54;99904.50;5089428;28;20032;-78
2020/12/16 01:08:50;;;;;;;25.27;15.25;;;;;;;2.68;73.73;99904.72;5090127;28;20480;-80
2020/12/16 01:11:16;;;;;;;21.85;13.50;;;;;;;2.63;73.69;99904.50;5093838;28;20016;-76
2020/12/16 01:13:41;;;;;;;30.40;15.60;;;;;;;2.61;73.84;99909.16;5087337;28;20089;-74
2020/12/16 01:16:07;;;;;;;24.50;15.40;;;;;;;2.60;73.74;99913.66;5075018;28;20025;-75
2020/12/16 01:18:32;;;;;;;25.58;16.67;;;;;;;2.59;73.81;99905.91;5074613;28;20098;-77
2020/12/16 01:20:57;;;;;;;25.55;17.17;;;;;;;2.56;74.17;99901.84;5091885;28;20458;-75
2020/12/16 01:23:23;;;;;;;22.95;14.55;;;;;;;2.55;73.82;99914.25;5094390;28;20039;-75
2020/12/16 01:25:48;;;;;;;19.58;11.50;;;;;;;2.53;73.95;99889.88;5074861;28;20029;-74
2020/12/16 01:28:14;;;;;;;18.80;10.60;;;;;;;2.55;73.90;99895.75;5079808;28;20032;-75
2020/12/16 01:30:39;;;;;;;14.18;8.35;;;;;;;2.54;73.72;99899.41;5092483;28;20036;-75
2020/12/16 01:33:04;;;;;;;14.90;8.85;;;;;;;2.56;73.96;99897.41;5093374;28;20035;-76
2020/12/16 01:35:30;;;;;;;16.98;10.45;;;;;;;2.52;73.76;99893.50;5093093;28;20059;-76
2020/12/16 01:37:55;;;;;;;18.45;10.45;;;;;;;2.56;73.84;99893.91;5093374;28;20162;-77
2020/12/16 01:40:22;;;;;;;20.15;10.13;;;;;;;2.56;74.35;99900.03;5092282;28;20036;-78
2020/12/16 01:42:48;;;;;;;17.67;10.70;;;;;;;2.55;74.16;99892.28;5092816;28;20032;-79
2020/12/16 01:45:21;;;;;;;18.00;10.23;;;;;;;2.52;73.83;99884.78;5092442;28;20111;-77
2020/12/16 01:47:47;;;;;;;18.00;10.95;;;;;;;2.54;73.93;99888.06;5093075;28;20028;-77
2020/12/16 01:50:13;;;;;;;21.35;10.57;;;;;;;2.55;73.84;99894.94;5108739;28;20024;-78
2020/12/16 01:52:39;;;;;;;15.45;9.93;;;;;;;2.58;73.98;99897.19;5092843;28;20028;-78
2020/12/16 01:55:07;;;;;;;19.55;11.45;;;;;;;2.62;74.18;99901.03;5083796;28;20029;-77
2020/12/16 01:57:39;;;;;;;20.67;10.20;;;;;;;2.60;74.47;99897.81;5072424;28;20024;-75
2020/12/16 02:00:10;;;;;;;23.63;13.55;;;;;;;2.69;74.95;99896.56;5089415;28;20028;-76
2020/12/16 02:02:49;;;;;;;23.02;12.00;;;;;;;2.72;75.38;99904.09;5074308;28;20036;-74
2020/12/16 02:05:18;;;;;;;25.55;14.50;;;;;;;2.78;75.14;99899.00;5072619;28;20028;-77
2020/12/16 02:07:45;;;;;;;19.08;10.20;;;;;;;2.80;75.45;99895.16;5074160;28;20024;-75
2020/12/16 02:10:11;;;;;;;21.60;11.90;;;;;;;2.86;75.60;99896.97;5085169;28;20118;-76
2020/12/16 02:12:36;;;;;;;16.13;10.20;;;;;;;2.87;75.40;99895.16;5093496;28;20067;-75
2020/12/16 02:15:08;;;;;;;15.90;10.10;;;;;;;2.91;75.33;99893.72;5092555;28;20092;-74
2020/12/16 02:17:34;;;;;;;23.52;13.10;;;;;;;2.99;75.41;99896.16;5093689;28;20484;-75
2020/12/16 02:20:03;;;;;;;21.17;10.88;;;;;;;2.99;75.30;99893.53;5092084;28;20035;-74
2020/12/16 02:22:28;;;;;;;18.88;9.65;;;;;;;3.04;75.30;99898.19;5089832;28;20126;-76
2020/12/16 02:25:10;;;;;;;14.18;8.48;;;;;;;3.03;74.77;99889.44;5091726;28;20059;-76
2020/12/16 02:27:37;;;;;;;18.17;9.35;;;;;;;3.04;75.01;99895.56;5091388;28;20124;-75
2020/12/16 02:30:06;;;;;;;16.17;9.60;;;;;;;3.05;74.91;99897.16;5074141;28;20095;-78
2020/12/16 02:32:31;;;;;;;18.77;8.98;;;;;;;3.06;75.21;99895.34;5075181;28;20036;-75
2020/12/16 02:34:57;;;;;;;13.85;8.68;;;;;;;3.08;75.00;99898.59;5072108;28;20466;-79
2020/12/16 02:37:23;;;;;;;15.50;9.43;;;;;;;3.10;75.02;99901.84;5083653;28;20028;-77
2020/12/16 02:39:49;;;;;;;15.02;8.98;;;;;;;3.16;75.22;99906.28;5091528;28;20447;-74
2020/12/16 02:42:20;;;;;;;15.82;8.80;;;;;;;3.12;75.04;99884.75;5093472;28;20534;-74
2020/12/16 02:44:45;;;;;;;23.38;11.80;;;;;;;3.17;75.52;99898.19;5092110;28;20045;-76
2020/12/16 02:47:11;;;;;;;20.40;11.10;;;;;;;3.20;75.17;99896.97;5091813;28;20024;-76
2020/12/16 02:49:36;;;;;;;24.42;11.70;;;;;;;3.21;75.47;99901.22;5090754;28;20066;-75
2020/12/16 02:52:02;;;;;;;22.45;11.07;;;;;;;3.22;75.91;99902.81;5071377;28;20028;-75
2020/12/16 02:54:27;;;;;;;21.13;10.80;;;;;;;3.26;76.07;99906.69;5086367;28;20024;-73
2020/12/16 02:56:55;;;;;;;19.13;10.68;;;;;;;3.28;75.83;99899.34;5091870;28;20473;-75
2020/12/16 02:59:22;;;;;;;23.40;10.13;;;;;;;3.27;75.50;99892.47;5076177;28;20060;-74
2020/12/16 03:01:48;;;;;;;22.02;11.57;;;;;;;3.33;76.20;99904.03;5071615;28;20568;-76
2020/12/16 03:04:15;;;;;;;19.98;10.10;;;;;;;3.35;76.04;99902.81;5071492;28;20032;-74
2020/12/16 03:06:40;;;;;;;19.23;10.25;;;;;;;3.39;76.22;99907.69;5083909;28;20036;-76
2020/12/16 03:09:06;;;;;;;22.67;12.00;;;;;;;3.38;75.80;99901.56;5091646;28;20027;-76
2020/12/16 03:11:31;;;;;;;21.00;11.27;;;;;;;3.38;75.85;99906.06;5091383;28;20576;-76
2020/12/16 03:13:56;;;;;;;25.98;12.18;;;;;;;3.36;76.11;99901.78;5108555;28;20475;-75
2020/12/16 03:16:22;;;;;;;28.63;12.18;;;;;;;3.36;76.02;99912.38;5092433;28;20385;-74
2020/12/16 03:18:48;;;;;;;27.35;13.95;;;;;;;3.39;76.02;99912.97;5091342;28;20073;-73
2020/12/16 03:21:21;;;;;;;22.70;13.18;;;;;;;3.38;76.00;99909.50;5090404;28;20087;-74
2020/12/16 03:23:47;;;;;;;24.00;12.60;;;;;;;3.36;76.45;99904.44;5075847;28;20028;-75
2020/12/16 03:26:12;;;;;;;31.08;15.73;;;;;;;3.40;76.11;99911.97;5091377;28;20472;-76
2020/12/16 03:28:37;;;;;;;26.33;13.23;;;;;;;3.38;76.32;99914.00;5078398;28;20047;-75
2020/12/16 03:31:04;;;;;;;26.98;12.15;;;;;;;3.41;76.38;99924.16;5070224;28;20116;-74
2020/12/16 03:33:30;;;;;;;30.30;15.00;;;;;;;3.43;76.47;99924.75;5084161;28;20038;-76
2020/12/16 03:35:55;;;;;;;25.00;13.65;;;;;;;3.43;76.28;99916.81;5091076;28;20020;-77
2020/12/16 03:38:20;;;;;;;29.27;14.60;;;;;;;3.38;76.26;99911.34;5090630;28;20027;-75
2020/12/16 03:40:46;;;;;;;29.73;14.43;;;;;;;3.46;76.74;99924.34;5090682;28;20036;-81
2020/12/16 03:43:11;;;;;;;29.17;15.13;;;;;;;3.45;76.85;99925.38;5090860;28;20024;-78
2020/12/16 03:45:37;;;;;;;34.63;18.45;;;;;;;3.47;76.88;99926.78;5090799;28;20039;-76
2020/12/16 03:48:02;;;;;;;31.15;16.95;;;;;;;3.48;77.02;99938.19;5075373;28;20047;-75
2020/12/16 03:50:27;;;;;;;29.80;16.17;;;;;;;3.50;76.55;99928.19;5070271;28;20027;-75
2020/12/16 03:52:53;;;;;;;34.78;20.40;;;;;;;3.50;76.87;99930.84;5070553;28;20021;-78
2020/12/16 03:55:18;;;;;;;38.67;21.75;;;;;;;3.50;76.68;99920.25;5077999;28;20118;-76
2020/12/16 03:57:44;;;;;;;38.13;19.85;;;;;;;3.54;76.39;99924.13;5086345;28;20553;-75
2020/12/16 04:00:10;;;;;;;45.17;21.85;;;;;;;3.54;76.54;99926.78;5070599;28;20035;-77
2020/12/16 04:02:39;;;;;;;34.28;19.02;;;;;;;3.57;76.27;99925.56;5070027;28;20063;-77
2020/12/16 04:05:08;;;;;;;48.95;22.10;;;;;;;3.49;75.98;99924.75;5078022;28;20496;-77
2020/12/16 04:07:33;;;;;;;34.35;19.50;;;;;;;3.52;76.06;99926.97;5090178;28;20032;-75
2020/12/16 04:09:59;;;;;;;42.03;19.92;;;;;;;3.45;76.66;99933.31;5091815;28;20047;-76
2020/12/16 04:12:25;;;;;;;35.22;17.55;;;;;;;3.46;76.47;99937.56;5090141;28;20061;-77
2020/12/16 04:14:51;;;;;;;36.63;17.35;;;;;;;3.42;76.49;99944.28;5071864;28;20036;-78
2020/12/16 04:17:16;;;;;;;30.65;16.92;;;;;;;3.42;76.45;99939.00;5069880;28;20477;-78
2020/12/16 04:19:42;;;;;;;32.95;17.10;;;;;;;3.37;76.47;99942.28;5069605;28;20119;-79
2020/12/16 04:22:07;;;;;;;30.77;16.33;;;;;;;3.30;76.75;99944.13;5080625;28;20039;-79
2020/12/16 04:24:32;;;;;;;34.03;15.95;;;;;;;3.32;76.93;99945.53;5080094;28;20534;-77
2020/12/16 04:26:58;;;;;;;32.25;17.63;;;;;;;3.28;77.23;99949.59;5069825;28;20040;-74
2020/12/16 04:29:25;;;;;;;33.30;18.08;;;;;;;3.26;77.49;99951.66;5069782;28;20426;-77
2020/12/16 04:31:51;;;;;;;33.45;17.23;;;;;;;3.32;77.29;99956.09;5069768;28;20032;-77
2020/12/16 04:34:18;;;;;;;37.92;18.23;;;;;;;3.30;77.64;99947.56;5069605;28;20041;-75
2020/12/16 04:36:47;;;;;;;31.92;14.90;;;;;;;3.36;77.39;99953.88;5069459;28;20094;-74
2020/12/16 04:39:13;;;;;;;30.70;17.67;;;;;;;3.33;77.54;99959.56;5069579;28;20033;-75
2020/12/16 04:41:39;;;;;;;31.50;15.88;;;;;;;3.29;77.31;99959.16;5083487;28;20119;-74
2020/12/16 04:44:05;;;;;;;29.05;15.50;;;;;;;3.26;77.66;99967.50;5106639;28;20493;-74
2020/12/16 04:46:31;;;;;;;30.63;16.13;;;;;;;3.06;77.75;99921.78;5089599;28;20036;-74
2020/12/16 04:48:57;;;;;;;33.90;18.42;;;;;;;3.30;78.03;99960.78;5076740;28;20039;-77
2020/12/16 04:51:25;;;;;;;33.13;17.77;;;;;;;3.27;78.05;99966.50;5069512;28;20040;-76
2020/12/16 04:53:53;;;;;;;38.53;18.10;;;;;;;3.29;78.03;99975.00;5073279;28;20485;-76
2020/12/16 04:56:19;;;;;;;32.33;16.35;;;;;;;3.25;77.98;99975.63;5089656;28;20115;-77
2020/12/16 04:58:45;;;;;;;38.90;16.60;;;;;;;3.25;77.93;99981.75;5088914;28;20096;-74
2020/12/16 05:01:10;;;;;;;39.88;18.98;;;;;;;3.26;78.08;99986.00;5087501;28;20045;-75
2020/12/16 05:03:39;;;;;;;37.38;19.92;;;;;;;3.24;77.80;99982.75;5070157;28;20059;-74
2020/12/16 05:06:04;;;;;;;36.83;19.50;;;;;;;3.25;78.14;99992.31;5070427;28;20060;-78
2020/12/16 05:08:30;;;;;;;38.00;18.45;;;;;;;3.26;78.56;99985.19;5085762;28;20066;-76
2020/12/16 05:10:55;;;;;;;32.75;17.83;;;;;;;3.29;78.37;99987.44;5089569;28;20036;-75
2020/12/16 05:13:22;;;;;;;33.67;17.13;;;;;;;3.30;78.08;99983.78;5090840;28;20079;-75
2020/12/16 05:15:49;;;;;;;38.70;18.10;;;;;;;3.35;78.17;99981.31;5089239;28;20028;-76
2020/12/16 05:18:19;;;;;;;36.03;16.73;;;;;;;3.32;78.03;99979.91;5090897;28;20134;-77
2020/12/16 05:20:48;;;;;;;32.15;15.00;;;;;;;3.38;77.82;99986.19;5088806;28;20035;-77
2020/12/16 05:23:15;;;;;;;33.47;16.98;;;;;;;3.34;77.54;99983.16;5070277;28;20047;-74
2020/12/16 05:25:57;;;;;;;37.08;16.25;;;;;;;3.37;77.62;99995.16;5074421;28;20040;-73
2020/12/16 05:28:35;;;;;;;35.85;15.65;;;;;;;3.38;77.20;100001.25;5089455;28;20058;-74
2020/12/16 05:31:06;;;;;;;28.50;15.43;;;;;;;3.34;77.65;99998.19;5073766;28;20044;-74
2020/12/16 05:33:49;;;;;;;37.95;16.52;;;;;;;3.27;77.86;100008.78;5068760;28;20110;-74
2020/12/16 05:36:31;;;;;;;33.58;15.98;;;;;;;3.17;78.28;99998.63;5073581;28;20093;-75
2020/12/16 05:38:58;;;;;;;35.00;16.42;;;;;;;3.04;78.02;99980.94;5070393;28;20037;-75
2020/12/16 05:41:34;;;;;;;34.85;16.65;;;;;;;3.21;78.11;100014.91;5069034;28;20374;-77
2020/12/16 05:44:16;;;;;;;40.00;16.80;;;;;;;3.19;78.17;100014.28;5078925;28;20043;-77
2020/12/16 05:46:42;;;;;;;44.90;17.20;;;;;;;3.18;78.44;100020.56;5084845;28;20039;-74
2020/12/16 05:49:23;;;;;;;40.10;19.27;;;;;;;3.16;78.47;100020.78;5073370;28;20025;-74
2020/12/16 05:51:58;;;;;;;37.90;17.58;;;;;;;3.16;78.76;100020.78;5078679;28;20032;-74
2020/12/16 05:54:23;;;;;;;33.15;17.27;;;;;;;3.17;78.23;100026.88;5084036;28;20097;-74
2020/12/16 05:57:14;;;;;;;35.08;18.52;;;;;;;3.14;78.54;100019.38;5086853;28;20477;-75
2020/12/16 05:59:41;;;;;;;32.83;17.17;;;;;;;3.11;78.58;100017.13;5092637;28;20036;-75
2020/12/16 06:02:07;;;;;;;39.60;17.63;;;;;;;3.13;79.09;100028.31;5091996;28;20427;-76
2020/12/16 06:04:34;;;;;;;39.50;18.67;;;;;;;2.95;78.90;99999.81;5091774;28;20113;-76
2020/12/16 06:07:00;;;;;;;38.53;18.00;;;;;;;3.11;79.30;100031.13;5080803;28;20060;-76
2020/12/16 06:09:26;;;;;;;43.10;20.17;;;;;;;3.09;79.22;100025.25;5077288;28;20028;-77
2020/12/16 06:11:55;;;;;;;40.35;18.63;;;;;;;3.08;79.33;100033.41;5072214;28;20132;-75
2020/12/16 06:14:21;;;;;;;41.92;19.55;;;;;;;3.06;79.47;100036.22;5084663;28;20039;-76
2020/12/16 06:16:48;;;;;;;38.53;17.45;;;;;;;3.09;79.28;100037.63;5076783;28;20105;-76
2020/12/16 06:19:31;;;;;;;39.38;18.40;;;;;;;3.11;79.61;100038.25;5088172;28;20126;-76
2020/12/16 06:22:08;;;;;;;36.88;18.05;;;;;;;3.10;79.78;100042.75;5072187;28;20032;-76
2020/12/16 06:24:42;;;;;;;31.75;16.35;;;;;;;3.17;79.85;100048.84;5071531;28;20098;-76
2020/12/16 06:27:09;;;;;;;43.13;18.67;;;;;;;3.17;79.62;100048.03;5072351;28;20033;-76
2020/12/16 06:29:44;;;;;;;37.28;20.40;;;;;;;3.18;79.71;100055.75;5080494;28;20024;-75
2020/12/16 06:32:19;;;;;;;48.75;20.05;;;;;;;3.22;79.68;100056.16;5077398;28;20028;-76
2020/12/16 06:34:45;;;;;;;41.70;18.58;;;;;;;3.25;79.48;100058.41;5090489;28;20108;-76
2020/12/16 06:37:15;;;;;;;39.60;18.13;;;;;;;3.30;79.70;100066.53;5092073;28;20051;-76
2020/12/16 06:39:41;;;;;;;34.70;17.98;;;;;;;3.32;78.96;100061.88;5072957;28;20176;-80
2020/12/16 06:42:06;;;;;;;41.95;19.48;;;;;;;3.31;79.37;100062.09;5075225;28;20105;-76
2020/12/16 06:44:32;;;;;;;41.78;18.45;;;;;;;3.33;79.13;100052.09;5083054;28;20093;-79
2020/12/16 06:46:58;;;;;;;42.13;18.65;;;;;;;3.37;79.37;100063.91;5092064;28;20085;-76
2020/12/16 06:49:23;;;;;;;48.10;19.63;;;;;;;3.39;79.33;100074.28;5092020;28;20119;-84
2020/12/16 06:52:10;;;;;;;37.47;17.88;;;;;;;3.38;79.18;100067.34;5112817;28;20635;-79
2020/12/16 06:54:41;;;;;;;48.65;17.52;;;;;;;3.32;79.24;100056.59;5112048;28;20027;-77
2020/12/16 06:57:11;;;;;;;37.72;17.45;;;;;;;3.43;79.13;100062.25;5089168;28;20082;-77
2020/12/16 06:59:46;;;;;;;49.92;19.33;;;;;;;3.52;79.03;100074.28;5085745;28;20127;-77
2020/12/16 07:02:14;;;;;;;38.72;18.83;;;;;;;3.50;79.18;100068.38;5071517;28;20565;-79
2020/12/16 07:04:39;;;;;;;42.30;18.03;;;;;;;3.53;79.22;100070.63;5082093;28;20031;-80
2020/12/16 07:07:05;;;;;;;36.92;17.85;;;;;;;3.58;78.64;100078.75;5090450;28;20027;-76
2020/12/16 07:09:34;;;;;;;49.95;19.30;;;;;;;3.61;78.70;100077.53;5091472;28;20146;-77
2020/12/16 07:12:00;;;;;;;;;;;;;;;3.66;78.52;100085.66;5090932;28;20385;-77
2020/12/16 07:14:33;;;;;;;43.67;18.52;;;;;;;3.62;78.97;100079.16;5071474;28;19908;-79
2020/12/16 07:17:10;;;;;;;51.03;20.67;;;;;;;3.63;79.24;100075.50;5083847;28;20136;-81
2020/12/16 07:19:37;;;;;;;38.78;19.63;;;;;;;3.68;79.00;100081.78;5086348;28;20036;-79
2020/12/16 07:22:22;;;;;;;43.45;18.85;;;;;;;3.74;78.81;100084.66;5076418;28;20028;-77
2020/12/16 07:24:49;;;;;;;46.08;19.75;;;;;;;3.74;78.80;100087.28;5089590;28;20079;-75
2020/12/16 07:27:23;;;;;;;45.03;18.95;;;;;;;3.81;78.76;100083.63;5098358;28;20035;-76
2020/12/16 07:29:56;;;;;;;45.85;20.35;;;;;;;3.85;78.73;100082.16;5090647;28;20036;-75
2020/12/16 07:32:23;;;;;;;41.67;19.90;;;;;;;3.94;78.49;100084.59;5089740;28;20062;-74
2020/12/16 07:34:53;;;;;;;43.08;19.13;;;;;;;3.95;78.44;100073.81;5079765;28;20055;-74
2020/12/16 07:37:21;;;;;;;33.95;18.38;;;;;;;4.01;78.16;100080.13;5070689;28;20103;-76
2020/12/16 07:39:54;;;;;;;40.53;17.35;;;;;;;4.06;78.12;100082.94;5070522;28;20036;-74
2020/12/16 07:42:21;;;;;;;38.92;20.80;;;;;;;4.10;78.16;100083.34;5071730;28;20024;-73
2020/12/16 07:44:47;;;;;;;38.47;19.15;;;;;;;4.12;78.08;100083.97;5085323;28;20378;-72
2020/12/16 07:47:14;;;;;;;37.67;18.92;;;;;;;4.10;78.03;100089.47;5071909;28;20450;-74
2020/12/16 07:49:40;;;;;;;50.08;21.85;;;;;;;4.21;77.96;100092.50;5082351;28;20052;-73
2020/12/16 07:52:06;;;;;;;45.42;19.50;;;;;;;4.21;77.88;100095.13;5090407;28;20052;-73
2020/12/16 07:54:31;;;;;;;42.22;20.23;;;;;;;4.20;78.14;100090.88;5090985;28;20059;-72
2020/12/16 07:56:57;;;;;;;42.67;21.23;;;;;;;4.13;77.96;100080.31;5089907;28;20032;-72
2020/12/16 07:59:28;;;;;;;54.22;22.83;;;;;;;4.27;77.92;100084.53;5090703;28;20424;-74
2020/12/16 08:02:03;;;;;;;50.63;22.70;;;;;;;4.38;77.86;100100.78;5092101;28;20031;-73
2020/12/16 08:04:29;;;;;;;53.28;24.45;;;;;;;4.42;77.79;100094.88;5090703;28;20050;-74
2020/12/16 08:06:54;;;;;;;46.30;22.70;;;;;;;4.43;77.81;100096.50;5087952;28;20503;-73
2020/12/16 08:09:21;;;;;;;54.80;25.65;;;;;;;4.52;77.79;100105.03;5091362;28;20061;-74
2020/12/16 08:11:47;;;;;;;45.63;22.67;;;;;;;4.57;77.52;100105.22;5090349;28;20435;-74
2020/12/16 08:14:12;;;;;;;52.55;25.45;;;;;;;4.60;77.14;100101.31;5090412;28;20119;-75
2020/12/16 08:16:38;;;;;;;51.95;24.45;;;;;;;4.61;76.77;100102.94;5073470;28;20432;-74
2020/12/16 08:19:06;;;;;;;48.67;25.42;;;;;;;4.66;76.78;100111.06;5069550;28;20024;-72
2020/12/16 08:21:32;;;;;;;49.63;23.50;;;;;;;4.65;76.90;100102.31;5073781;28;20039;-70
2020/12/16 08:23:57;;;;;;;46.72;24.02;;;;;;;4.71;76.75;100102.50;5070818;28;20715;-70
2020/12/16 08:26:25;;;;;;;47.67;24.60;;;;;;;4.76;76.78;100107.97;5078068;28;20032;-71
2020/12/16 08:28:51;;;;;;;46.35;22.67;;;;;;;4.79;76.68;100111.00;5086490;28;20453;-71
2020/12/16 08:31:22;;;;;;;48.08;25.33;;;;;;;4.84;77.09;100110.38;5089618;28;20027;-71
2020/12/16 08:33:49;;;;;;;43.60;20.85;;;;;;;4.86;76.60;100108.34;5091154;28;20511;-72
2020/12/16 08:36:21;;;;;;;41.28;20.38;;;;;;;4.89;76.28;100105.25;5086017;28;20032;-74
2020/12/16 08:38:49;;;;;;;36.63;18.80;;;;;;;4.90;76.40;100120.16;5070474;28;20064;-74
2020/12/16 08:41:24;;;;;;;38.30;20.20;;;;;;;4.92;76.30;100110.16;5069711;28;20538;-74
2020/12/16 08:43:49;;;;;;;34.50;19.55;;;;;;;4.79;76.08;100091.66;5069203;28;20429;-75
2020/12/16 08:46:19;;;;;;;29.60;15.57;;;;;;;4.87;76.36;100104.69;5069678;28;20028;-76
2020/12/16 08:48:46;;;;;;;38.08;17.42;;;;;;;4.86;75.92;100096.91;5083004;28;20093;-74
2020/12/16 08:51:21;;;;;;;33.03;16.15;;;;;;;4.94;76.39;100105.47;5085629;28;20485;-76
2020/12/16 08:53:51;;;;;;;28.40;15.15;;;;;;;4.96;75.83;100098.09;5088750;28;20083;-75
2020/12/16 08:56:31;;;;;;;40.83;18.08;;;;;;;5.00;76.07;100097.66;5070553;28;20047;-75
2020/12/16 08:59:04;;;;;;;34.25;16.40;;;;;;;5.03;75.64;100094.56;5075317;28;20418;-75
2020/12/16 09:01:30;;;;;;;35.22;17.45;;;;;;;5.09;76.04;100101.69;5069652;28;20568;-76
2020/12/16 09:03:55;;;;;;;34.42;16.30;;;;;;;5.12;75.94;100095.97;5068899;28;20032;-77
2020/12/16 09:06:21;;;;;;;32.10;16.73;;;;;;;5.14;75.49;100093.91;5069281;28;20035;-74
2020/12/16 09:08:47;;;;;;;30.27;15.48;;;;;;;5.20;75.59;100101.03;5070768;28;20028;-75
2020/12/16 09:11:13;;;;;;;34.42;16.83;;;;;;;5.19;75.52;100091.44;5089381;28;20035;-75
2020/12/16 09:13:38;;;;;;;25.63;14.80;;;;;;;5.23;74.88;100097.13;5088062;28;20172;-75
2020/12/16 09:16:04;;;;;;;32.65;14.15;;;;;;;5.20;75.33;100095.72;5077729;28;20024;-74
2020/12/16 09:18:32;;;;;;;26.17;12.32;;;;;;;5.20;74.84;100093.06;5089538;28;20135;-74
2020/12/16 09:20:58;;;;;;;23.90;12.18;;;;;;;5.17;74.90;100092.69;5071511;28;20461;-75
2020/12/16 09:23:27;;;;;;;27.10;14.00;;;;;;;5.15;74.86;100092.06;5074103;28;20153;-74
2020/12/16 09:25:55;;;;;;;27.95;13.60;;;;;;;5.10;75.24;100079.44;5090541;28;20024;-74
2020/12/16 09:28:32;;;;;;;24.02;12.35;;;;;;;5.15;75.17;100084.94;5089309;28;20032;-74
2020/12/16 09:31:09;;;;;;;27.27;12.75;;;;;;;5.18;75.52;100089.00;5082809;28;20082;-73
2020/12/16 09:33:35;;;;;;;20.52;11.00;;;;;;;5.20;75.73;100081.63;5078722;28;20028;-75
2020/12/16 09:36:00;;;;;;;22.08;11.45;;;;;;;5.23;75.35;100089.16;5093272;28;20076;-75
2020/12/16 09:38:25;;;;;;;21.80;10.18;;;;;;;5.24;75.22;100082.84;5093327;28;20017;-75
2020/12/16 09:41:00;;;;;;;22.02;11.15;;;;;;;5.23;75.95;100073.25;5087919;28;20040;-75
2020/12/16 09:43:40;;;;;;;24.52;13.07;;;;;;;5.27;75.40;100072.63;5092757;28;20484;-75
2020/12/16 09:46:19;;;;;;;23.63;12.30;;;;;;;5.31;74.70;100070.34;5084992;28;20024;-75
2020/12/16 09:48:46;;;;;;;22.83;12.57;;;;;;;5.33;75.43;100060.31;5078431;28;20048;-74
2020/12/16 09:51:17;;;;;;;26.27;13.07;;;;;;;5.35;75.45;100060.13;5092308;28;20031;-74
2020/12/16 09:53:43;;;;;;;26.38;11.57;;;;;;;5.38;75.17;100057.00;5081242;28;20028;-74
2020/12/16 09:56:22;;;;;;;30.35;11.85;;;;;;;5.38;75.09;100057.84;5090207;28;20028;-74
2020/12/16 09:58:47;;;;;;;24.58;12.65;;;;;;;5.40;75.18;100060.28;5092480;28;20020;-75
2020/12/16 10:01:13;;;;;;;26.10;12.65;;;;;;;5.45;74.73;100060.44;5092724;28;20036;-75
2020/12/16 10:03:38;;;;;;;32.22;14.80;;;;;;;5.50;74.56;100063.22;5094344;28;20024;-75
2020/12/16 10:06:05;;;;;;;21.33;10.73;;;;;;;5.50;74.92;100059.78;5093609;28;20031;-74
2020/12/16 10:08:31;;;;;;;18.70;10.88;;;;;;;5.47;74.18;100061.03;5093765;28;20032;-73
2020/12/16 10:10:56;;;;;;;15.90;10.57;;;;;;;5.49;74.52;100053.66;5093789;28;20024;-74
2020/12/16 10:13:22;;;;;;;21.38;10.57;;;;;;;5.50;74.05;100057.94;5092653;28;20058;-70
2020/12/16 10:15:48;;;;;;;19.00;10.07;;;;;;;5.48;74.64;100051.22;5091512;28;20028;-71
2020/12/16 10:18:14;;;;;;;13.55;7.30;;;;;;;5.47;74.05;100055.72;5093878;28;20031;-71
2020/12/16 10:20:39;;;;;;;17.98;10.00;;;;;;;5.45;74.44;100041.84;5092518;28;20040;-70
2020/12/16 10:23:06;;;;;;;19.27;11.35;;;;;;;5.39;74.69;100030.25;5093073;28;20310;-71
2020/12/16 10:25:32;;;;;;;18.20;9.02;;;;;;;5.43;74.45;100041.25;5093698;28;20105;-71
2020/12/16 10:27:58;;;;;;;18.30;9.80;;;;;;;5.36;74.09;100030.72;5091901;28;20066;-71
2020/12/16 10:30:26;;;;;;;20.10;9.10;;;;;;;5.36;74.69;100032.53;5091630;28;20066;-71
2020/12/16 10:32:56;;;;;;;17.48;8.13;;;;;;;5.36;74.32;100043.16;5073246;28;20035;-71
2020/12/16 10:35:23;;;;;;;22.50;10.50;;;;;;;5.36;74.88;100038.66;5073605;28;20068;-71
2020/12/16 10:37:48;;;;;;;14.80;8.68;;;;;;;5.38;74.78;100041.09;5072794;28;20020;-71
2020/12/16 10:40:14;;;;;;;16.85;8.63;;;;;;;5.35;75.08;100025.63;5073117;28;20043;-71
2020/12/16 10:42:39;;;;;;;18.05;9.63;;;;;;;5.39;75.35;100027.59;5090704;28;20605;-71
2020/12/16 10:45:05;;;;;;;19.10;9.63;;;;;;;5.43;75.35;100028.81;5083597;28;20431;-71
2020/12/16 10:47:31;;;;;;;21.05;10.85;;;;;;;5.43;75.01;100026.16;5077314;28;20155;-71
2020/12/16 10:49:57;;;;;;;20.00;9.63;;;;;;;5.39;74.98;100013.53;5085133;28;20035;-71
2020/12/16 10:52:22;;;;;;;23.15;9.85;;;;;;;5.48;75.16;100022.88;5072735;28;20028;-71
2020/12/16 10:54:48;;;;;;;18.13;8.88;;;;;;;5.42;74.97;100011.28;5078972;28;20032;-71
2020/12/16 10:57:13;;;;;;;17.65;8.43;;;;;;;5.50;74.81;100018.13;5087737;28;20036;-70
2020/12/16 10:59:39;;;;;;;23.02;9.52;;;;;;;5.50;75.17;100019.97;5087474;28;20028;-70
2020/12/16 11:02:04;;;;;;;24.02;11.38;;;;;;;5.49;74.74;100010.41;5081767;28;20472;-71
2020/12/16 11:04:31;;;;;;;13.00;7.85;;;;;;;5.45;74.80;100008.16;5087842;28;20036;-71
2020/12/16 11:06:56;;;;;;;12.55;7.32;;;;;;;5.49;74.67;100007.75;5092779;28;20020;-71
2020/12/16 11:09:23;;;;;;;15.23;7.82;;;;;;;5.47;74.34;100010.63;5077987;28;20038;-71
2020/12/16 11:11:51;;;;;;;19.65;8.50;;;;;;;5.49;74.45;100002.44;5092992;28;20039;-71
2020/12/16 11:14:16;;;;;;;17.02;8.20;;;;;;;5.45;74.24;99996.75;5092825;28;20028;-71
2020/12/16 11:16:43;;;;;;;19.30;9.00;;;;;;;5.49;74.75;99999.78;5091401;28;20024;-71
2020/12/16 11:19:10;;;;;;;17.13;8.80;;;;;;;5.51;74.59;99993.22;5087779;28;20370;-71
2020/12/16 11:21:40;;;;;;;14.63;9.48;;;;;;;5.43;74.54;99980.22;5092676;28;20055;-71
2020/12/16 11:24:07;;;;;;;21.70;10.77;;;;;;;5.50;74.89;99991.59;5092103;28;20055;-71